METAR Formatted Surface Weather Observation
Issued by NWS

Home | Current Version | Previous Version | Text Only | Print | Product List | Glossary On
Versions: 1 2 3 4 5 6 7 8 9 10
000
SAUS45 KFGZ 280557 COR
MTRRQE
METAR KRQE 280553Z AUTO 05009KT 10SM CLR 19/09 A3042 RMK AO2 SLP163
60002 T01890094 10261 20172 50005 TSNO



USA.gov is the U.S. government's official web portal to all federal, state and local government web resources and services.